sensor_id;sensor_type;location;lat;lon;timestamp;P1;durP1;ratioP1;P2;durP2;ratioP2
51384;SDS011;37478;55.682;37.462;2023-07-28T00:01:41;27.42;;;17.75;;
51384;SDS011;37478;55.682;37.462;2023-07-28T00:04:07;29.58;;;18.35;;
51384;SDS011;37478;55.682;37.462;2023-07-28T00:06:34;25.42;;;18.40;;
51384;SDS011;37478;55.682;37.462;2023-07-28T00:08:59;29.90;;;17.35;;
51384;SDS011;37478;55.682;37.462;2023-07-28T00:11:25;25.35;;;17.23;;
51384;SDS011;37478;55.682;37.462;2023-07-28T00:13:50;21.65;;;17.38;;
51384;SDS011;37478;55.682;37.462;2023-07-28T00:16:15;25.10;;;18.02;;
51384;SDS011;37478;55.682;37.462;2023-07-28T00:18:41;23.42;;;16.98;;
51384;SDS011;37478;55.682;37.462;2023-07-28T00:21:06;25.23;;;17.02;;
51384;SDS011;37478;55.682;37.462;2023-07-28T00:23:32;23.27;;;17.45;;
51384;SDS011;37478;55.682;37.462;2023-07-28T00:25:57;28.95;;;18.33;;
51384;SDS011;37478;55.682;37.462;2023-07-28T00:28:22;22.98;;;16.30;;
51384;SDS011;37478;55.682;37.462;2023-07-28T00:30:50;25.08;;;17.27;;
51384;SDS011;37478;55.682;37.462;2023-07-28T00:33:16;23.02;;;16.27;;
51384;SDS011;37478;55.682;37.462;2023-07-28T00:35:41;24.70;;;17.23;;
51384;SDS011;37478;55.682;37.462;2023-07-28T00:38:07;25.63;;;18.65;;
51384;SDS011;37478;55.682;37.462;2023-07-28T00:40:32;27.70;;;18.55;;
51384;SDS011;37478;55.682;37.462;2023-07-28T00:42:57;27.38;;;17.75;;
51384;SDS011;37478;55.682;37.462;2023-07-28T00:45:23;25.95;;;18.17;;
51384;SDS011;37478;55.682;37.462;2023-07-28T00:47:48;24.33;;;17.33;;
51384;SDS011;37478;55.682;37.462;2023-07-28T00:50:13;28.20;;;20.00;;
51384;SDS011;37478;55.682;37.462;2023-07-28T00:52:39;25.02;;;17.40;;
51384;SDS011;37478;55.682;37.462;2023-07-28T00:55:05;29.85;;;18.15;;
51384;SDS011;37478;55.682;37.462;2023-07-28T00:57:31;29.33;;;18.98;;
51384;SDS011;37478;55.682;37.462;2023-07-28T00:59:56;25.90;;;18.63;;
51384;SDS011;37478;55.682;37.462;2023-07-28T01:02:21;28.45;;;18.35;;
51384;SDS011;37478;55.682;37.462;2023-07-28T01:04:47;32.63;;;20.25;;
51384;SDS011;37478;55.682;37.462;2023-07-28T01:07:14;30.00;;;20.55;;
51384;SDS011;37478;55.682;37.462;2023-07-28T01:09:46;34.38;;;19.83;;
51384;SDS011;37478;55.682;37.462;2023-07-28T01:12:12;36.03;;;21.27;;
51384;SDS011;37478;55.682;37.462;2023-07-28T01:14:37;30.00;;;20.42;;
51384;SDS011;37478;55.682;37.462;2023-07-28T01:17:02;28.05;;;20.90;;
51384;SDS011;37478;55.682;37.462;2023-07-28T01:19:28;30.88;;;19.50;;
51384;SDS011;37478;55.682;37.462;2023-07-28T01:21:57;30.80;;;21.48;;
51384;SDS011;37478;55.682;37.462;2023-07-28T01:27:27;32.53;;;23.45;;
51384;SDS011;37478;55.682;37.462;2023-07-28T01:29:53;37.33;;;23.65;;
51384;SDS011;37478;55.682;37.462;2023-07-28T01:32:18;35.40;;;22.67;;
51384;SDS011;37478;55.682;37.462;2023-07-28T01:34:44;30.70;;;21.10;;
51384;SDS011;37478;55.682;37.462;2023-07-28T01:37:09;33.20;;;21.38;;
51384;SDS011;37478;55.682;37.462;2023-07-28T01:39:34;32.70;;;21.33;;
51384;SDS011;37478;55.682;37.462;2023-07-28T01:42:00;29.05;;;20.95;;
51384;SDS011;37478;55.682;37.462;2023-07-28T01:44:25;28.13;;;19.33;;
51384;SDS011;37478;55.682;37.462;2023-07-28T01:46:50;28.73;;;17.83;;
51384;SDS011;37478;55.682;37.462;2023-07-28T01:49:16;26.02;;;19.42;;
51384;SDS011;37478;55.682;37.462;2023-07-28T01:51:41;25.40;;;18.13;;
51384;SDS011;37478;55.682;37.462;2023-07-28T01:54:06;27.65;;;19.55;;
51384;SDS011;37478;55.682;37.462;2023-07-28T01:56:31;22.23;;;16.75;;
51384;SDS011;37478;55.682;37.462;2023-07-28T01:58:57;23.77;;;17.95;;
51384;SDS011;37478;55.682;37.462;2023-07-28T02:01:22;26.65;;;18.63;;
51384;SDS011;37478;55.682;37.462;2023-07-28T02:03:47;27.40;;;19.05;;
51384;SDS011;37478;55.682;37.462;2023-07-28T02:06:13;30.40;;;19.10;;
51384;SDS011;37478;55.682;37.462;2023-07-28T02:08:38;29.45;;;18.40;;
51384;SDS011;37478;55.682;37.462;2023-07-28T02:11:03;23.45;;;18.25;;
51384;SDS011;37478;55.682;37.462;2023-07-28T02:13:29;29.10;;;19.45;;
51384;SDS011;37478;55.682;37.462;2023-07-28T02:15:54;25.55;;;18.38;;
51384;SDS011;37478;55.682;37.462;2023-07-28T02:18:20;27.80;;;17.75;;
51384;SDS011;37478;55.682;37.462;2023-07-28T02:20:47;21.55;;;17.25;;
51384;SDS011;37478;55.682;37.462;2023-07-28T02:23:12;28.50;;;17.95;;
51384;SDS011;37478;55.682;37.462;2023-07-28T02:25:38;26.10;;;18.48;;
51384;SDS011;37478;55.682;37.462;2023-07-28T02:28:04;23.67;;;17.20;;
51384;SDS011;37478;55.682;37.462;2023-07-28T02:30:29;24.75;;;16.85;;
51384;SDS011;37478;55.682;37.462;2023-07-28T02:32:54;23.75;;;17.13;;
51384;SDS011;37478;55.682;37.462;2023-07-28T02:35:20;24.50;;;16.80;;
51384;SDS011;37478;55.682;37.462;2023-07-28T02:37:45;25.77;;;18.00;;
51384;SDS011;37478;55.682;37.462;2023-07-28T02:40:10;23.80;;;16.63;;
51384;SDS011;37478;55.682;37.462;2023-07-28T02:42:36;27.13;;;17.98;;
51384;SDS011;37478;55.682;37.462;2023-07-28T02:45:02;22.17;;;17.23;;
51384;SDS011;37478;55.682;37.462;2023-07-28T02:47:27;25.05;;;17.27;;
51384;SDS011;37478;55.682;37.462;2023-07-28T02:49:52;23.92;;;16.55;;
51384;SDS011;37478;55.682;37.462;2023-07-28T02:52:18;25.27;;;16.60;;
51384;SDS011;37478;55.682;37.462;2023-07-28T02:54:43;24.17;;;16.42;;
51384;SDS011;37478;55.682;37.462;2023-07-28T02:57:08;20.58;;;14.95;;
51384;SDS011;37478;55.682;37.462;2023-07-28T02:59:33;24.90;;;15.38;;
51384;SDS011;37478;55.682;37.462;2023-07-28T03:01:59;26.73;;;16.63;;
51384;SDS011;37478;55.682;37.462;2023-07-28T03:04:24;23.00;;;16.58;;
51384;SDS011;37478;55.682;37.462;2023-07-28T03:06:50;20.83;;;16.50;;
51384;SDS011;37478;55.682;37.462;2023-07-28T03:09:15;22.63;;;16.17;;
51384;SDS011;37478;55.682;37.462;2023-07-28T03:11:42;21.55;;;15.00;;
51384;SDS011;37478;55.682;37.462;2023-07-28T03:14:07;21.70;;;16.63;;
51384;SDS011;37478;55.682;37.462;2023-07-28T03:16:32;25.05;;;16.45;;
51384;SDS011;37478;55.682;37.462;2023-07-28T03:18:58;18.55;;;14.70;;
51384;SDS011;37478;55.682;37.462;2023-07-28T03:21:23;26.33;;;16.70;;
51384;SDS011;37478;55.682;37.462;2023-07-28T03:23:48;21.10;;;16.00;;
51384;SDS011;37478;55.682;37.462;2023-07-28T03:26:13;22.20;;;14.38;;
51384;SDS011;37478;55.682;37.462;2023-07-28T03:28:39;19.73;;;14.35;;
51384;SDS011;37478;55.682;37.462;2023-07-28T03:31:04;18.88;;;14.52;;
51384;SDS011;37478;55.682;37.462;2023-07-28T03:33:29;17.55;;;13.63;;
51384;SDS011;37478;55.682;37.462;2023-07-28T03:35:55;25.58;;;14.52;;
51384;SDS011;37478;55.682;37.462;2023-07-28T03:38:20;18.38;;;13.85;;
51384;SDS011;37478;55.682;37.462;2023-07-28T03:40:45;21.08;;;14.82;;
51384;SDS011;37478;55.682;37.462;2023-07-28T03:43:11;19.65;;;13.85;;
51384;SDS011;37478;55.682;37.462;2023-07-28T03:45:36;21.63;;;14.30;;
51384;SDS011;37478;55.682;37.462;2023-07-28T03:48:01;20.92;;;15.20;;
51384;SDS011;37478;55.682;37.462;2023-07-28T03:50:27;20.83;;;14.80;;
51384;SDS011;37478;55.682;37.462;2023-07-28T03:52:53;22.73;;;16.25;;
51384;SDS011;37478;55.682;37.462;2023-07-28T03:55:18;27.08;;;17.02;;
51384;SDS011;37478;55.682;37.462;2023-07-28T03:57:43;24.58;;;17.90;;
51384;SDS011;37478;55.682;37.462;2023-07-28T04:00:09;31.23;;;19.40;;
51384;SDS011;37478;55.682;37.462;2023-07-28T04:02:34;26.33;;;19.27;;
51384;SDS011;37478;55.682;37.462;2023-07-28T04:04:59;27.27;;;19.23;;
51384;SDS011;37478;55.682;37.462;2023-07-28T04:07:25;32.88;;;19.85;;
51384;SDS011;37478;55.682;37.462;2023-07-28T04:09:50;27.20;;;18.40;;
51384;SDS011;37478;55.682;37.462;2023-07-28T04:12:15;27.45;;;18.08;;
51384;SDS011;37478;55.682;37.462;2023-07-28T04:14:40;29.50;;;19.40;;
51384;SDS011;37478;55.682;37.462;2023-07-28T04:17:06;29.80;;;20.02;;
51384;SDS011;37478;55.682;37.462;2023-07-28T04:19:32;27.40;;;18.60;;
51384;SDS011;37478;55.682;37.462;2023-07-28T04:21:58;24.95;;;18.02;;
51384;SDS011;37478;55.682;37.462;2023-07-28T04:24:23;23.73;;;16.67;;
51384;SDS011;37478;55.682;37.462;2023-07-28T04:26:50;27.45;;;19.48;;
51384;SDS011;37478;55.682;37.462;2023-07-28T04:29:15;28.50;;;19.30;;
51384;SDS011;37478;55.682;37.462;2023-07-28T04:31:41;27.70;;;18.45;;
51384;SDS011;37478;55.682;37.462;2023-07-28T04:34:06;28.23;;;20.02;;
51384;SDS011;37478;55.682;37.462;2023-07-28T04:36:31;26.10;;;19.02;;
51384;SDS011;37478;55.682;37.462;2023-07-28T04:38:57;28.88;;;19.42;;
51384;SDS011;37478;55.682;37.462;2023-07-28T04:41:22;31.40;;;19.33;;
51384;SDS011;37478;55.682;37.462;2023-07-28T04:43:47;32.17;;;21.38;;
51384;SDS011;37478;55.682;37.462;2023-07-28T04:46:14;30.55;;;21.25;;
51384;SDS011;37478;55.682;37.462;2023-07-28T04:48:39;32.78;;;20.50;;
51384;SDS011;37478;55.682;37.462;2023-07-28T04:51:04;32.47;;;22.02;;
51384;SDS011;37478;55.682;37.462;2023-07-28T04:53:30;29.40;;;20.13;;
51384;SDS011;37478;55.682;37.462;2023-07-28T04:55:55;31.67;;;19.98;;
51384;SDS011;37478;55.682;37.462;2023-07-28T04:58:20;34.42;;;22.60;;
51384;SDS011;37478;55.682;37.462;2023-07-28T05:00:46;29.65;;;19.95;;
51384;SDS011;37478;55.682;37.462;2023-07-28T05:03:11;33.20;;;21.45;;
51384;SDS011;37478;55.682;37.462;2023-07-28T05:05:36;28.42;;;20.75;;
51384;SDS011;37478;55.682;37.462;2023-07-28T05:08:02;33.42;;;20.05;;
51384;SDS011;37478;55.682;37.462;2023-07-28T05:10:27;35.30;;;21.55;;
51384;SDS011;37478;55.682;37.462;2023-07-28T05:12:53;27.13;;;18.20;;
51384;SDS011;37478;55.682;37.462;2023-07-28T05:15:18;26.77;;;18.95;;
51384;SDS011;37478;55.682;37.462;2023-07-28T05:17:43;23.73;;;18.40;;
51384;SDS011;37478;55.682;37.462;2023-07-28T05:20:08;28.17;;;18.85;;
51384;SDS011;37478;55.682;37.462;2023-07-28T05:22:34;25.73;;;17.65;;
51384;SDS011;37478;55.682;37.462;2023-07-28T05:24:59;25.77;;;17.38;;
51384;SDS011;37478;55.682;37.462;2023-07-28T05:27:24;26.42;;;18.50;;
51384;SDS011;37478;55.682;37.462;2023-07-28T05:29:50;34.30;;;20.77;;
51384;SDS011;37478;55.682;37.462;2023-07-28T05:32:15;26.88;;;19.10;;
51384;SDS011;37478;55.682;37.462;2023-07-28T05:34:43;24.67;;;17.50;;
51384;SDS011;37478;55.682;37.462;2023-07-28T05:37:09;27.77;;;18.60;;
51384;SDS011;37478;55.682;37.462;2023-07-28T05:39:35;30.65;;;19.83;;
51384;SDS011;37478;55.682;37.462;2023-07-28T05:42:00;25.05;;;17.70;;
51384;SDS011;37478;55.682;37.462;2023-07-28T05:44:26;24.60;;;17.50;;
51384;SDS011;37478;55.682;37.462;2023-07-28T05:46:51;22.83;;;17.30;;
51384;SDS011;37478;55.682;37.462;2023-07-28T05:49:16;25.52;;;16.75;;
51384;SDS011;37478;55.682;37.462;2023-07-28T05:51:42;26.70;;;17.73;;
51384;SDS011;37478;55.682;37.462;2023-07-28T05:54:07;23.23;;;15.60;;
51384;SDS011;37478;55.682;37.462;2023-07-28T05:56:32;22.42;;;15.52;;
51384;SDS011;37478;55.682;37.462;2023-07-28T05:58:57;26.02;;;16.58;;
51384;SDS011;37478;55.682;37.462;2023-07-28T06:01:23;20.85;;;14.35;;
51384;SDS011;37478;55.682;37.462;2023-07-28T06:03:50;21.77;;;14.88;;
51384;SDS011;37478;55.682;37.462;2023-07-28T06:06:17;18.40;;;12.88;;
51384;SDS011;37478;55.682;37.462;2023-07-28T06:08:42;20.08;;;12.90;;
51384;SDS011;37478;55.682;37.462;2023-07-28T06:11:07;18.58;;;12.77;;
51384;SDS011;37478;55.682;37.462;2023-07-28T06:13:32;18.08;;;12.70;;
51384;SDS011;37478;55.682;37.462;2023-07-28T06:15:58;16.02;;;10.82;;
51384;SDS011;37478;55.682;37.462;2023-07-28T06:18:23;14.38;;;10.63;;
51384;SDS011;37478;55.682;37.462;2023-07-28T06:20:49;17.63;;;10.60;;
51384;SDS011;37478;55.682;37.462;2023-07-28T06:23:14;13.57;;;9.43;;
51384;SDS011;37478;55.682;37.462;2023-07-28T06:25:39;15.60;;;10.75;;
51384;SDS011;37478;55.682;37.462;2023-07-28T06:28:09;14.27;;;9.60;;
51384;SDS011;37478;55.682;37.462;2023-07-28T06:30:34;16.85;;;9.57;;
51384;SDS011;37478;55.682;37.462;2023-07-28T06:33:00;17.65;;;10.90;;
51384;SDS011;37478;55.682;37.462;2023-07-28T06:35:25;14.18;;;9.98;;
51384;SDS011;37478;55.682;37.462;2023-07-28T06:37:52;17.10;;;9.80;;
51384;SDS011;37478;55.682;37.462;2023-07-28T06:40:17;21.05;;;11.55;;
51384;SDS011;37478;55.682;37.462;2023-07-28T06:42:43;15.98;;;10.82;;
51384;SDS011;37478;55.682;37.462;2023-07-28T06:45:08;16.27;;;10.55;;
51384;SDS011;37478;55.682;37.462;2023-07-28T06:47:33;19.17;;;9.93;;
51384;SDS011;37478;55.682;37.462;2023-07-28T06:49:59;16.88;;;11.00;;
51384;SDS011;37478;55.682;37.462;2023-07-28T06:52:24;21.40;;;11.77;;
51384;SDS011;37478;55.682;37.462;2023-07-28T06:54:50;19.58;;;12.93;;
51384;SDS011;37478;55.682;37.462;2023-07-28T06:57:15;18.40;;;12.43;;
51384;SDS011;37478;55.682;37.462;2023-07-28T06:59:41;24.80;;;12.98;;
51384;SDS011;37478;55.682;37.462;2023-07-28T07:02:06;17.90;;;12.32;;
51384;SDS011;37478;55.682;37.462;2023-07-28T07:04:32;17.42;;;12.40;;
51384;SDS011;37478;55.682;37.462;2023-07-28T07:06:57;18.92;;;11.82;;
51384;SDS011;37478;55.682;37.462;2023-07-28T07:09:22;19.63;;;13.50;;
51384;SDS011;37478;55.682;37.462;2023-07-28T07:11:48;18.55;;;12.05;;
51384;SDS011;37478;55.682;37.462;2023-07-28T07:14:13;21.55;;;13.00;;
51384;SDS011;37478;55.682;37.462;2023-07-28T07:16:39;20.95;;;14.20;;
51384;SDS011;37478;55.682;37.462;2023-07-28T07:19:05;19.58;;;13.90;;
51384;SDS011;37478;55.682;37.462;2023-07-28T07:21:30;21.88;;;14.40;;
51384;SDS011;37478;55.682;37.462;2023-07-28T07:23:55;24.75;;;15.25;;
51384;SDS011;37478;55.682;37.462;2023-07-28T07:26:20;21.15;;;14.50;;
51384;SDS011;37478;55.682;37.462;2023-07-28T07:28:46;21.13;;;14.85;;
51384;SDS011;37478;55.682;37.462;2023-07-28T07:31:14;23.73;;;16.08;;
51384;SDS011;37478;55.682;37.462;2023-07-28T07:33:40;21.65;;;15.20;;
51384;SDS011;37478;55.682;37.462;2023-07-28T07:36:05;31.67;;;17.45;;
51384;SDS011;37478;55.682;37.462;2023-07-28T07:38:31;27.10;;;17.33;;
51384;SDS011;37478;55.682;37.462;2023-07-28T07:40:56;25.83;;;16.73;;
51384;SDS011;37478;55.682;37.462;2023-07-28T07:43:21;25.77;;;15.98;;
51384;SDS011;37478;55.682;37.462;2023-07-28T07:45:47;24.83;;;16.00;;
51384;SDS011;37478;55.682;37.462;2023-07-28T07:48:12;25.88;;;16.50;;
51384;SDS011;37478;55.682;37.462;2023-07-28T07:50:38;29.13;;;14.32;;
51384;SDS011;37478;55.682;37.462;2023-07-28T07:53:03;22.27;;;14.65;;
51384;SDS011;37478;55.682;37.462;2023-07-28T07:55:28;23.10;;;14.13;;
51384;SDS011;37478;55.682;37.462;2023-07-28T07:57:53;17.55;;;12.18;;
51384;SDS011;37478;55.682;37.462;2023-07-28T08:00:19;17.38;;;12.40;;
51384;SDS011;37478;55.682;37.462;2023-07-28T08:02:44;19.92;;;12.65;;
51384;SDS011;37478;55.682;37.462;2023-07-28T08:05:10;18.05;;;11.05;;
51384;SDS011;37478;55.682;37.462;2023-07-28T08:07:35;15.18;;;10.43;;
51384;SDS011;37478;55.682;37.462;2023-07-28T08:10:01;13.98;;;9.15;;
51384;SDS011;37478;55.682;37.462;2023-07-28T08:12:26;12.13;;;8.63;;
51384;SDS011;37478;55.682;37.462;2023-07-28T08:14:52;17.73;;;8.63;;
51384;SDS011;37478;55.682;37.462;2023-07-28T08:17:18;12.82;;;7.43;;
51384;SDS011;37478;55.682;37.462;2023-07-28T08:19:44;11.75;;;8.35;;
51384;SDS011;37478;55.682;37.462;2023-07-28T08:22:09;13.90;;;8.27;;
51384;SDS011;37478;55.682;37.462;2023-07-28T08:24:35;16.60;;;7.78;;
51384;SDS011;37478;55.682;37.462;2023-07-28T08:27:00;10.57;;;7.38;;
51384;SDS011;37478;55.682;37.462;2023-07-28T08:29:25;14.27;;;8.65;;
51384;SDS011;37478;55.682;37.462;2023-07-28T08:31:51;11.05;;;7.47;;
51384;SDS011;37478;55.682;37.462;2023-07-28T08:34:16;14.13;;;8.63;;
51384;SDS011;37478;55.682;37.462;2023-07-28T08:36:42;11.68;;;8.15;;
51384;SDS011;37478;55.682;37.462;2023-07-28T08:39:08;11.25;;;7.97;;
51384;SDS011;37478;55.682;37.462;2023-07-28T08:41:34;10.13;;;7.88;;
51384;SDS011;37478;55.682;37.462;2023-07-28T08:44:00;12.27;;;8.52;;
51384;SDS011;37478;55.682;37.462;2023-07-28T08:46:25;12.65;;;8.18;;
51384;SDS011;37478;55.682;37.462;2023-07-28T08:48:51;11.60;;;8.95;;
51384;SDS011;37478;55.682;37.462;2023-07-28T08:51:16;10.80;;;8.38;;
51384;SDS011;37478;55.682;37.462;2023-07-28T08:53:41;11.35;;;8.73;;
51384;SDS011;37478;55.682;37.462;2023-07-28T08:56:06;10.40;;;8.45;;
51384;SDS011;37478;55.682;37.462;2023-07-28T08:58:32;12.63;;;9.38;;
51384;SDS011;37478;55.682;37.462;2023-07-28T09:00:58;13.77;;;10.25;;
51384;SDS011;37478;55.682;37.462;2023-07-28T09:03:26;14.82;;;9.45;;
51384;SDS011;37478;55.682;37.462;2023-07-28T09:05:53;11.40;;;8.98;;
51384;SDS011;37478;55.682;37.462;2023-07-28T09:08:23;10.48;;;8.20;;
51384;SDS011;37478;55.682;37.462;2023-07-28T09:10:49;11.95;;;7.60;;
51384;SDS011;37478;55.682;37.462;2023-07-28T09:13:15;10.30;;;7.32;;
51384;SDS011;37478;55.682;37.462;2023-07-28T09:15:41;12.07;;;8.13;;
51384;SDS011;37478;55.682;37.462;2023-07-28T09:18:07;9.65;;;7.95;;
51384;SDS011;37478;55.682;37.462;2023-07-28T09:20:36;11.38;;;8.20;;
51384;SDS011;37478;55.682;37.462;2023-07-28T09:23:02;10.55;;;8.73;;
51384;SDS011;37478;55.682;37.462;2023-07-28T09:25:28;9.93;;;7.70;;
51384;SDS011;37478;55.682;37.462;2023-07-28T09:27:54;11.13;;;8.50;;
51384;SDS011;37478;55.682;37.462;2023-07-28T09:30:19;9.10;;;7.40;;
51384;SDS011;37478;55.682;37.462;2023-07-28T09:32:50;10.98;;;8.35;;
51384;SDS011;37478;55.682;37.462;2023-07-28T09:35:15;12.70;;;8.90;;
51384;SDS011;37478;55.682;37.462;2023-07-28T09:37:43;12.13;;;8.32;;
51384;SDS011;37478;55.682;37.462;2023-07-28T09:40:09;11.85;;;8.75;;
51384;SDS011;37478;55.682;37.462;2023-07-28T09:42:37;13.13;;;9.13;;
51384;SDS011;37478;55.682;37.462;2023-07-28T09:45:04;16.52;;;9.00;;
51384;SDS011;37478;55.682;37.462;2023-07-28T09:47:30;12.30;;;8.88;;
51384;SDS011;37478;55.682;37.462;2023-07-28T09:49:56;11.65;;;9.05;;
51384;SDS011;37478;55.682;37.462;2023-07-28T09:52:23;17.08;;;9.52;;
51384;SDS011;37478;55.682;37.462;2023-07-28T09:54:49;14.98;;;10.38;;
51384;SDS011;37478;55.682;37.462;2023-07-28T09:57:19;16.15;;;11.00;;
51384;SDS011;37478;55.682;37.462;2023-07-28T09:59:45;18.15;;;11.57;;
51384;SDS011;37478;55.682;37.462;2023-07-28T10:02:11;17.13;;;11.73;;
51384;SDS011;37478;55.682;37.462;2023-07-28T10:04:36;13.77;;;11.07;;
51384;SDS011;37478;55.682;37.462;2023-07-28T10:07:03;16.20;;;11.45;;
51384;SDS011;37478;55.682;37.462;2023-07-28T10:09:29;16.42;;;12.38;;
51384;SDS011;37478;55.682;37.462;2023-07-28T10:12:02;18.23;;;12.30;;
51384;SDS011;37478;55.682;37.462;2023-07-28T10:14:29;20.98;;;14.88;;
51384;SDS011;37478;55.682;37.462;2023-07-28T10:16:56;19.17;;;13.55;;
51384;SDS011;37478;55.682;37.462;2023-07-28T10:19:21;18.42;;;12.50;;
51384;SDS011;37478;55.682;37.462;2023-07-28T10:21:49;17.98;;;12.50;;
51384;SDS011;37478;55.682;37.462;2023-07-28T10:24:15;14.23;;;10.43;;
51384;SDS011;37478;55.682;37.462;2023-07-28T10:26:40;14.23;;;10.65;;
51384;SDS011;37478;55.682;37.462;2023-07-28T10:29:15;17.35;;;12.02;;
51384;SDS011;37478;55.682;37.462;2023-07-28T10:31:51;14.65;;;11.27;;
51384;SDS011;37478;55.682;37.462;2023-07-28T10:34:17;17.98;;;11.85;;
51384;SDS011;37478;55.682;37.462;2023-07-28T10:36:43;17.73;;;12.07;;
51384;SDS011;37478;55.682;37.462;2023-07-28T10:39:12;13.13;;;10.18;;
51384;SDS011;37478;55.682;37.462;2023-07-28T10:41:38;17.58;;;11.75;;
51384;SDS011;37478;55.682;37.462;2023-07-28T10:44:04;16.92;;;11.25;;
51384;SDS011;37478;55.682;37.462;2023-07-28T10:46:30;15.48;;;10.38;;
51384;SDS011;37478;55.682;37.462;2023-07-28T10:48:57;13.85;;;10.00;;
51384;SDS011;37478;55.682;37.462;2023-07-28T10:51:29;10.82;;;8.38;;
51384;SDS011;37478;55.682;37.462;2023-07-28T10:53:59;11.80;;;9.20;;
51384;SDS011;37478;55.682;37.462;2023-07-28T10:56:25;14.73;;;9.75;;
51384;SDS011;37478;55.682;37.462;2023-07-28T10:59:01;14.23;;;9.98;;
51384;SDS011;37478;55.682;37.462;2023-07-28T11:01:33;13.77;;;9.82;;
51384;SDS011;37478;55.682;37.462;2023-07-28T11:04:06;12.40;;;9.90;;
51384;SDS011;37478;55.682;37.462;2023-07-28T11:06:31;16.63;;;10.50;;
51384;SDS011;37478;55.682;37.462;2023-07-28T11:08:57;16.05;;;9.65;;
51384;SDS011;37478;55.682;37.462;2023-07-28T11:11:23;15.40;;;11.50;;
51384;SDS011;37478;55.682;37.462;2023-07-28T11:13:48;15.20;;;10.57;;
51384;SDS011;37478;55.682;37.462;2023-07-28T11:16:14;15.55;;;11.02;;
51384;SDS011;37478;55.682;37.462;2023-07-28T11:18:39;17.25;;;11.82;;
51384;SDS011;37478;55.682;37.462;2023-07-28T11:21:04;17.40;;;11.50;;
51384;SDS011;37478;55.682;37.462;2023-07-28T11:23:30;13.57;;;9.82;;
51384;SDS011;37478;55.682;37.462;2023-07-28T11:25:55;16.55;;;9.57;;
51384;SDS011;37478;55.682;37.462;2023-07-28T11:28:21;13.57;;;11.05;;
51384;SDS011;37478;55.682;37.462;2023-07-28T11:30:46;16.95;;;11.20;;
51384;SDS011;37478;55.682;37.462;2023-07-28T11:33:12;15.68;;;10.65;;
51384;SDS011;37478;55.682;37.462;2023-07-28T11:35:38;12.65;;;9.82;;
51384;SDS011;37478;55.682;37.462;2023-07-28T11:38:04;14.23;;;11.57;;
51384;SDS011;37478;55.682;37.462;2023-07-28T11:40:30;14.23;;;10.60;;
51384;SDS011;37478;55.682;37.462;2023-07-28T11:42:55;16.80;;;11.20;;
51384;SDS011;37478;55.682;37.462;2023-07-28T11:45:21;14.02;;;9.85;;
51384;SDS011;37478;55.682;37.462;2023-07-28T11:47:56;15.55;;;10.80;;
51384;SDS011;37478;55.682;37.462;2023-07-28T11:50:22;13.57;;;10.40;;
51384;SDS011;37478;55.682;37.462;2023-07-28T11:52:48;17.63;;;11.48;;
51384;SDS011;37478;55.682;37.462;2023-07-28T11:55:14;17.58;;;10.98;;
51384;SDS011;37478;55.682;37.462;2023-07-28T11:57:41;15.38;;;11.38;;
51384;SDS011;37478;55.682;37.462;2023-07-28T12:00:07;16.70;;;10.30;;
51384;SDS011;37478;55.682;37.462;2023-07-28T12:02:33;15.60;;;10.60;;
51384;SDS011;37478;55.682;37.462;2023-07-28T12:04:59;13.52;;;9.77;;
51384;SDS011;37478;55.682;37.462;2023-07-28T12:07:28;14.80;;;10.25;;
51384;SDS011;37478;55.682;37.462;2023-07-28T12:09:55;15.98;;;10.82;;
51384;SDS011;37478;55.682;37.462;2023-07-28T12:12:25;11.02;;;7.05;;
51384;SDS011;37478;55.682;37.462;2023-07-28T12:14:57;7.05;;;4.75;;
51384;SDS011;37478;55.682;37.462;2023-07-28T12:17:29;9.05;;;5.70;;
51384;SDS011;37478;55.682;37.462;2023-07-28T12:20:15;5.25;;;3.70;;
51384;SDS011;37478;55.682;37.462;2023-07-28T12:22:40;6.05;;;4.18;;
51384;SDS011;37478;55.682;37.462;2023-07-28T12:25:06;4.88;;;3.70;;
51384;SDS011;37478;55.682;37.462;2023-07-28T12:27:31;5.25;;;4.20;;
51384;SDS011;37478;55.682;37.462;2023-07-28T12:29:56;7.40;;;3.90;;
51384;SDS011;37478;55.682;37.462;2023-07-28T12:32:22;5.93;;;3.85;;
51384;SDS011;37478;55.682;37.462;2023-07-28T12:34:50;5.80;;;4.18;;
51384;SDS011;37478;55.682;37.462;2023-07-28T12:37:16;6.13;;;4.47;;
51384;SDS011;37478;55.682;37.462;2023-07-28T12:39:41;7.97;;;4.50;;
51384;SDS011;37478;55.682;37.462;2023-07-28T12:42:07;9.93;;;5.80;;
51384;SDS011;37478;55.682;37.462;2023-07-28T12:44:33;7.53;;;4.90;;
51384;SDS011;37478;55.682;37.462;2023-07-28T12:46:58;8.52;;;4.97;;
51384;SDS011;37478;55.682;37.462;2023-07-28T12:49:23;6.90;;;5.25;;
51384;SDS011;37478;55.682;37.462;2023-07-28T12:51:49;5.90;;;4.43;;
51384;SDS011;37478;55.682;37.462;2023-07-28T12:54:14;8.48;;;4.07;;
51384;SDS011;37478;55.682;37.462;2023-07-28T12:56:40;6.00;;;4.35;;
51384;SDS011;37478;55.682;37.462;2023-07-28T12:59:05;5.68;;;4.13;;
51384;SDS011;37478;55.682;37.462;2023-07-28T13:01:30;4.88;;;3.63;;
51384;SDS011;37478;55.682;37.462;2023-07-28T13:03:56;7.68;;;4.13;;
51384;SDS011;37478;55.682;37.462;2023-07-28T13:06:21;4.72;;;3.30;;
51384;SDS011;37478;55.682;37.462;2023-07-28T13:08:46;3.75;;;3.00;;
51384;SDS011;37478;55.682;37.462;2023-07-28T13:11:11;5.30;;;3.90;;
51384;SDS011;37478;55.682;37.462;2023-07-28T13:13:39;9.48;;;3.55;;
51384;SDS011;37478;55.682;37.462;2023-07-28T13:16:04;6.07;;;3.88;;
51384;SDS011;37478;55.682;37.462;2023-07-28T13:18:30;6.88;;;4.07;;
51384;SDS011;37478;55.682;37.462;2023-07-28T13:20:57;4.55;;;2.70;;
51384;SDS011;37478;55.682;37.462;2023-07-28T13:23:22;4.93;;;3.08;;
51384;SDS011;37478;55.682;37.462;2023-07-28T13:25:48;5.97;;;3.53;;
51384;SDS011;37478;55.682;37.462;2023-07-28T13:28:13;3.78;;;2.90;;
51384;SDS011;37478;55.682;37.462;2023-07-28T13:30:39;4.35;;;2.70;;
51384;SDS011;37478;55.682;37.462;2023-07-28T13:33:04;4.43;;;3.13;;
51384;SDS011;37478;55.682;37.462;2023-07-28T13:35:31;4.53;;;3.25;;
51384;SDS011;37478;55.682;37.462;2023-07-28T13:37:57;7.60;;;4.10;;
51384;SDS011;37478;55.682;37.462;2023-07-28T13:40:22;4.47;;;3.30;;
51384;SDS011;37478;55.682;37.462;2023-07-28T13:42:47;5.65;;;3.50;;
51384;SDS011;37478;55.682;37.462;2023-07-28T13:45:13;7.22;;;4.05;;
51384;SDS011;37478;55.682;37.462;2023-07-28T13:47:38;5.70;;;3.67;;
51384;SDS011;37478;55.682;37.462;2023-07-28T13:50:04;5.55;;;3.45;;
51384;SDS011;37478;55.682;37.462;2023-07-28T13:52:29;6.55;;;3.83;;
51384;SDS011;37478;55.682;37.462;2023-07-28T13:54:54;4.57;;;3.72;;
51384;SDS011;37478;55.682;37.462;2023-07-28T13:57:19;6.05;;;3.40;;
51384;SDS011;37478;55.682;37.462;2023-07-28T13:59:45;6.40;;;3.83;;
51384;SDS011;37478;55.682;37.462;2023-07-28T14:02:10;12.35;;;5.07;;
51384;SDS011;37478;55.682;37.462;2023-07-28T14:04:35;9.98;;;5.10;;
51384;SDS011;37478;55.682;37.462;2023-07-28T14:07:01;26.90;;;13.65;;
51384;SDS011;37478;55.682;37.462;2023-07-28T14:09:26;23.25;;;10.02;;